This London Heathrow Airport weather forecast is generated by the Met Office Weather Widget

AirNav RadarBox - Metar Weather
  London Heathrow Metar Weather
 

METAR = EGLL 270950Z AUTO 06008KT 9999 NCD 16/08 Q1017 NOSIG

STATION........ EGLL
OBSERVED....... Fri May 27, 10:50 BST
NOW............ Fri May 27, 11:09 BST
AGE............ 19 min ago
WIND........... ENE at 9 mph
VISIBILITY..... 16 miles

Fri May 27 2016, sunrise time : 03:58
Fri May 27 2016, sunset time : 19:59